sensor_id;sensor_type;location;lat;lon;timestamp;temperature;humidity
66962;HTU21D;53897;51.126;5.868;2024-02-26T00:01:38;19.09;42.39
66962;HTU21D;53897;51.126;5.868;2024-02-26T00:04:04;19.10;42.39
66962;HTU21D;53897;51.126;5.868;2024-02-26T00:06:30;19.06;42.42
66962;HTU21D;53897;51.126;5.868;2024-02-26T00:08:57;19.07;42.40
66962;HTU21D;53897;51.126;5.868;2024-02-26T00:11:22;19.06;42.39
66962;HTU21D;53897;51.126;5.868;2024-02-26T00:13:48;19.05;42.38
66962;HTU21D;53897;51.126;5.868;2024-02-26T00:16:14;19.02;42.37
66962;HTU21D;53897;51.126;5.868;2024-02-26T00:18:40;19.01;42.39
66962;HTU21D;53897;51.126;5.868;2024-02-26T00:21:05;19.01;42.39
66962;HTU21D;53897;51.126;5.868;2024-02-26T00:23:31;19.00;42.39
66962;HTU21D;53897;51.126;5.868;2024-02-26T00:25:57;19.00;42.38
66962;HTU21D;53897;51.126;5.868;2024-02-26T00:28:23;18.98;42.38
66962;HTU21D;53897;51.126;5.868;2024-02-26T00:30:50;18.98;42.39
66962;HTU21D;53897;51.126;5.868;2024-02-26T00:33:21;18.96;42.39
66962;HTU21D;53897;51.126;5.868;2024-02-26T00:35:48;18.96;42.39
66962;HTU21D;53897;51.126;5.868;2024-02-26T00:38:14;18.96;42.39
66962;HTU21D;53897;51.126;5.868;2024-02-26T00:40:39;18.94;42.39
66962;HTU21D;53897;51.126;5.868;2024-02-26T00:43:09;18.95;42.39
66962;HTU21D;53897;51.126;5.868;2024-02-26T00:45:35;18.93;42.41
66962;HTU21D;53897;51.126;5.868;2024-02-26T00:48:01;18.91;42.41
66962;HTU21D;53897;51.126;5.868;2024-02-26T00:50:31;18.91;42.41
66962;HTU21D;53897;51.126;5.868;2024-02-26T00:52:57;18.91;42.40
66962;HTU21D;53897;51.126;5.868;2024-02-26T00:55:23;18.89;42.39
66962;HTU21D;53897;51.126;5.868;2024-02-26T00:57:48;18.87;42.40
66962;HTU21D;53897;51.126;5.868;2024-02-26T01:00:14;18.87;42.41
66962;HTU21D;53897;51.126;5.868;2024-02-26T01:02:41;18.86;42.43
66962;HTU21D;53897;51.126;5.868;2024-02-26T01:05:08;18.84;42.45
66962;HTU21D;53897;51.126;5.868;2024-02-26T01:07:37;18.85;42.46
66962;HTU21D;53897;51.126;5.868;2024-02-26T01:10:03;18.83;42.45
66962;HTU21D;53897;51.126;5.868;2024-02-26T01:12:29;18.83;42.48
66962;HTU21D;53897;51.126;5.868;2024-02-26T01:14:55;18.82;42.48
66962;HTU21D;53897;51.126;5.868;2024-02-26T01:17:21;18.81;42.50
66962;HTU21D;53897;51.126;5.868;2024-02-26T01:19:46;18.80;42.48
66962;HTU21D;53897;51.126;5.868;2024-02-26T01:22:12;18.80;42.52
66962;HTU21D;53897;51.126;5.868;2024-02-26T01:24:38;18.80;42.52
66962;HTU21D;53897;51.126;5.868;2024-02-26T01:27:04;18.77;42.53
66962;HTU21D;53897;51.126;5.868;2024-02-26T01:29:32;18.77;42.54
66962;HTU21D;53897;51.126;5.868;2024-02-26T01:31:57;18.74;42.55
66962;HTU21D;53897;51.126;5.868;2024-02-26T01:34:23;18.76;42.55
66962;HTU21D;53897;51.126;5.868;2024-02-26T01:36:49;18.73;42.57
66962;HTU21D;53897;51.126;5.868;2024-02-26T01:39:14;18.74;42.57
66962;HTU21D;53897;51.126;5.868;2024-02-26T01:41:40;18.72;42.58
66962;HTU21D;53897;51.126;5.868;2024-02-26T01:44:06;18.71;42.58
66962;HTU21D;53897;51.126;5.868;2024-02-26T01:46:34;18.71;42.59
66962;HTU21D;53897;51.126;5.868;2024-02-26T01:49:01;18.70;42.59
66962;HTU21D;53897;51.126;5.868;2024-02-26T01:51:28;18.69;42.61
66962;HTU21D;53897;51.126;5.868;2024-02-26T01:53:54;18.68;42.61
66962;HTU21D;53897;51.126;5.868;2024-02-26T01:56:22;18.67;42.62
66962;HTU21D;53897;51.126;5.868;2024-02-26T01:58:48;18.67;42.64
66962;HTU21D;53897;51.126;5.868;2024-02-26T02:01:16;18.67;42.64
66962;HTU21D;53897;51.126;5.868;2024-02-26T02:03:45;18.65;42.65
66962;HTU21D;53897;51.126;5.868;2024-02-26T02:06:12;18.63;42.65
66962;HTU21D;53897;51.126;5.868;2024-02-26T02:08:38;18.62;42.68
66962;HTU21D;53897;51.126;5.868;2024-02-26T02:11:04;18.61;42.68
66962;HTU21D;53897;51.126;5.868;2024-02-26T02:13:31;18.61;42.69
66962;HTU21D;53897;51.126;5.868;2024-02-26T02:15:57;18.61;42.69
66962;HTU21D;53897;51.126;5.868;2024-02-26T02:18:22;18.59;42.69
66962;HTU21D;53897;51.126;5.868;2024-02-26T02:20:48;18.59;42.68
66962;HTU21D;53897;51.126;5.868;2024-02-26T02:23:14;18.58;42.71
66962;HTU21D;53897;51.126;5.868;2024-02-26T02:25:40;18.59;42.69
66962;HTU21D;53897;51.126;5.868;2024-02-26T02:28:06;18.61;42.72
66962;HTU21D;53897;51.126;5.868;2024-02-26T02:30:32;18.63;42.74
66962;HTU21D;53897;51.126;5.868;2024-02-26T02:32:58;18.65;42.74
66962;HTU21D;53897;51.126;5.868;2024-02-26T02:35:25;18.70;42.74
66962;HTU21D;53897;51.126;5.868;2024-02-26T02:37:57;18.74;42.74
66962;HTU21D;53897;51.126;5.868;2024-02-26T02:40:24;18.78;42.72
66962;HTU21D;53897;51.126;5.868;2024-02-26T02:42:49;18.82;42.74
66962;HTU21D;53897;51.126;5.868;2024-02-26T02:45:15;18.86;42.68
66962;HTU21D;53897;51.126;5.868;2024-02-26T02:47:41;18.88;42.69
66962;HTU21D;53897;51.126;5.868;2024-02-26T02:50:07;18.93;42.66
66962;HTU21D;53897;51.126;5.868;2024-02-26T02:52:32;18.97;42.65
66962;HTU21D;53897;51.126;5.868;2024-02-26T02:54:58;19.01;42.59
66962;HTU21D;53897;51.126;5.868;2024-02-26T02:57:24;19.02;42.60
66962;HTU21D;53897;51.126;5.868;2024-02-26T02:59:50;19.05;42.57
66962;HTU21D;53897;51.126;5.868;2024-02-26T03:02:15;19.06;42.58
66962;HTU21D;53897;51.126;5.868;2024-02-26T03:04:41;19.09;42.56
66962;HTU21D;53897;51.126;5.868;2024-02-26T03:07:07;19.11;42.55
66962;HTU21D;53897;51.126;5.868;2024-02-26T03:09:32;19.12;42.55
66962;HTU21D;53897;51.126;5.868;2024-02-26T03:11:58;19.13;42.54
66962;HTU21D;53897;51.126;5.868;2024-02-26T03:14:24;19.16;42.52
66962;HTU21D;53897;51.126;5.868;2024-02-26T03:16:54;19.15;42.52
66962;HTU21D;53897;51.126;5.868;2024-02-26T03:19:19;19.16;42.53
66962;HTU21D;53897;51.126;5.868;2024-02-26T03:21:45;19.16;42.52
66962;HTU21D;53897;51.126;5.868;2024-02-26T03:24:11;19.20;42.51
66962;HTU21D;53897;51.126;5.868;2024-02-26T03:26:37;19.21;42.48
66962;HTU21D;53897;51.126;5.868;2024-02-26T03:29:04;19.20;42.50
66962;HTU21D;53897;51.126;5.868;2024-02-26T03:31:30;19.20;42.50
66962;HTU21D;53897;51.126;5.868;2024-02-26T03:33:56;19.20;42.48
66962;HTU21D;53897;51.126;5.868;2024-02-26T03:36:22;19.21;42.48
66962;HTU21D;53897;51.126;5.868;2024-02-26T03:38:48;19.22;42.46
66962;HTU21D;53897;51.126;5.868;2024-02-26T03:41:14;19.21;42.46
66962;HTU21D;53897;51.126;5.868;2024-02-26T03:43:40;19.21;42.48
66962;HTU21D;53897;51.126;5.868;2024-02-26T03:46:09;19.21;42.46
66962;HTU21D;53897;51.126;5.868;2024-02-26T03:48:36;19.21;42.46
66962;HTU21D;53897;51.126;5.868;2024-02-26T03:51:03;19.23;42.43
66962;HTU21D;53897;51.126;5.868;2024-02-26T03:53:29;19.21;42.45
66962;HTU21D;53897;51.126;5.868;2024-02-26T03:55:54;19.21;42.44
66962;HTU21D;53897;51.126;5.868;2024-02-26T03:58:21;19.21;42.43
66962;HTU21D;53897;51.126;5.868;2024-02-26T04:00:47;19.20;42.43
66962;HTU21D;53897;51.126;5.868;2024-02-26T04:03:15;19.21;42.42
66962;HTU21D;53897;51.126;5.868;2024-02-26T04:05:41;19.20;42.42
66962;HTU21D;53897;51.126;5.868;2024-02-26T04:08:07;19.18;42.42
66962;HTU21D;53897;51.126;5.868;2024-02-26T04:10:33;19.18;42.41
66962;HTU21D;53897;51.126;5.868;2024-02-26T04:13:05;19.18;42.42
66962;HTU21D;53897;51.126;5.868;2024-02-26T04:15:31;19.16;42.40
66962;HTU21D;53897;51.126;5.868;2024-02-26T04:17:57;19.16;42.39
66962;HTU21D;53897;51.126;5.868;2024-02-26T04:20:23;19.16;42.39
66962;HTU21D;53897;51.126;5.868;2024-02-26T04:22:49;19.15;42.38
66962;HTU21D;53897;51.126;5.868;2024-02-26T04:25:14;19.16;42.37
66962;HTU21D;53897;51.126;5.868;2024-02-26T04:27:40;19.15;42.37
66962;HTU21D;53897;51.126;5.868;2024-02-26T04:30:07;19.14;42.37
66962;HTU21D;53897;51.126;5.868;2024-02-26T04:32:32;19.12;42.36
66962;HTU21D;53897;51.126;5.868;2024-02-26T04:35:03;19.12;42.35
66962;HTU21D;53897;51.126;5.868;2024-02-26T04:37:29;19.12;42.36
66962;HTU21D;53897;51.126;5.868;2024-02-26T04:39:59;19.11;42.36
66962;HTU21D;53897;51.126;5.868;2024-02-26T04:42:26;19.11;42.35
66962;HTU21D;53897;51.126;5.868;2024-02-26T04:44:52;19.10;42.36
66962;HTU21D;53897;51.126;5.868;2024-02-26T04:47:18;19.09;42.35
66962;HTU21D;53897;51.126;5.868;2024-02-26T04:49:43;19.08;42.34
66962;HTU21D;53897;51.126;5.868;2024-02-26T04:52:09;19.08;42.34
66962;HTU21D;53897;51.126;5.868;2024-02-26T04:54:35;19.08;42.32
66962;HTU21D;53897;51.126;5.868;2024-02-26T04:57:01;19.06;42.30
66962;HTU21D;53897;51.126;5.868;2024-02-26T04:59:26;19.05;42.31
66962;HTU21D;53897;51.126;5.868;2024-02-26T05:01:52;19.03;42.32
66962;HTU21D;53897;51.126;5.868;2024-02-26T05:04:18;19.02;42.32
66962;HTU21D;53897;51.126;5.868;2024-02-26T05:06:44;19.01;42.34
66962;HTU21D;53897;51.126;5.868;2024-02-26T05:09:10;19.00;42.34
66962;HTU21D;53897;51.126;5.868;2024-02-26T05:11:36;18.99;42.34
66962;HTU21D;53897;51.126;5.868;2024-02-26T05:14:03;18.98;42.33
66962;HTU21D;53897;51.126;5.868;2024-02-26T05:16:28;18.98;42.36
66962;HTU21D;53897;51.126;5.868;2024-02-26T05:18:57;18.97;42.34
66962;HTU21D;53897;51.126;5.868;2024-02-26T05:21:23;18.96;42.37
66962;HTU21D;53897;51.126;5.868;2024-02-26T05:23:48;18.95;42.36
66962;HTU21D;53897;51.126;5.868;2024-02-26T05:26:21;18.94;42.37
66962;HTU21D;53897;51.126;5.868;2024-02-26T05:28:47;18.94;42.38
66962;HTU21D;53897;51.126;5.868;2024-02-26T05:31:13;18.92;42.37
66962;HTU21D;53897;51.126;5.868;2024-02-26T05:33:39;18.91;42.36
66962;HTU21D;53897;51.126;5.868;2024-02-26T05:36:05;18.89;42.39
66962;HTU21D;53897;51.126;5.868;2024-02-26T05:38:31;18.88;42.39
66962;HTU21D;53897;51.126;5.868;2024-02-26T05:41:00;18.88;42.39
66962;HTU21D;53897;51.126;5.868;2024-02-26T05:43:26;18.88;42.39
66962;HTU21D;53897;51.126;5.868;2024-02-26T05:45:53;18.86;42.40
66962;HTU21D;53897;51.126;5.868;2024-02-26T05:48:19;18.85;42.39
66962;HTU21D;53897;51.126;5.868;2024-02-26T05:50:46;18.84;42.40
66962;HTU21D;53897;51.126;5.868;2024-02-26T05:53:12;18.84;42.40
66962;HTU21D;53897;51.126;5.868;2024-02-26T05:55:38;18.82;42.42
66962;HTU21D;53897;51.126;5.868;2024-02-26T05:58:04;18.80;42.42
66962;HTU21D;53897;51.126;5.868;2024-02-26T06:00:30;18.80;42.42
66962;HTU21D;53897;51.126;5.868;2024-02-26T06:02:56;18.80;42.43
66962;HTU21D;53897;51.126;5.868;2024-02-26T06:05:21;18.79;42.44
66962;HTU21D;53897;51.126;5.868;2024-02-26T06:07:47;18.78;42.45
66962;HTU21D;53897;51.126;5.868;2024-02-26T06:10:13;18.77;42.45
66962;HTU21D;53897;51.126;5.868;2024-02-26T06:12:41;18.76;42.44
66962;HTU21D;53897;51.126;5.868;2024-02-26T06:15:07;18.73;42.47
66962;HTU21D;53897;51.126;5.868;2024-02-26T06:17:34;18.73;42.48
66962;HTU21D;53897;51.126;5.868;2024-02-26T06:20:00;18.73;42.48
66962;HTU21D;53897;51.126;5.868;2024-02-26T06:22:27;18.72;42.48
66962;HTU21D;53897;51.126;5.868;2024-02-26T06:24:52;18.72;42.49
66962;HTU21D;53897;51.126;5.868;2024-02-26T06:27:18;18.70;42.48
66962;HTU21D;53897;51.126;5.868;2024-02-26T06:29:44;18.69;42.50
66962;HTU21D;53897;51.126;5.868;2024-02-26T06:32:09;18.68;42.52
66962;HTU21D;53897;51.126;5.868;2024-02-26T06:34:35;18.67;42.54
66962;HTU21D;53897;51.126;5.868;2024-02-26T06:37:01;18.66;42.55
66962;HTU21D;53897;51.126;5.868;2024-02-26T06:39:29;18.66;42.56
66962;HTU21D;53897;51.126;5.868;2024-02-26T06:41:54;18.65;42.55
66962;HTU21D;53897;51.126;5.868;2024-02-26T06:44:26;18.64;42.55
66962;HTU21D;53897;51.126;5.868;2024-02-26T06:46:52;18.64;42.55
66962;HTU21D;53897;51.126;5.868;2024-02-26T06:49:17;18.62;42.56
66962;HTU21D;53897;51.126;5.868;2024-02-26T06:51:43;18.62;42.58
66962;HTU21D;53897;51.126;5.868;2024-02-26T06:54:09;18.65;42.59
66962;HTU21D;53897;51.126;5.868;2024-02-26T06:56:35;18.67;42.61
66962;HTU21D;53897;51.126;5.868;2024-02-26T06:59:01;18.69;42.61
66962;HTU21D;53897;51.126;5.868;2024-02-26T07:01:26;18.72;42.62
66962;HTU21D;53897;51.126;5.868;2024-02-26T07:03:52;18.76;42.63
66962;HTU21D;53897;51.126;5.868;2024-02-26T07:06:18;18.80;42.63
66962;HTU21D;53897;51.126;5.868;2024-02-26T07:08:43;18.84;42.61
66962;HTU21D;53897;51.126;5.868;2024-02-26T07:11:10;18.88;42.59
66962;HTU21D;53897;51.126;5.868;2024-02-26T07:13:36;18.93;42.57
66962;HTU21D;53897;51.126;5.868;2024-02-26T07:16:02;18.95;42.55
66962;HTU21D;53897;51.126;5.868;2024-02-26T07:18:28;18.99;42.53
66962;HTU21D;53897;51.126;5.868;2024-02-26T07:20:54;19.02;42.51
66962;HTU21D;53897;51.126;5.868;2024-02-26T07:23:19;19.05;42.48
66962;HTU21D;53897;51.126;5.868;2024-02-26T07:25:45;19.08;42.45
66962;HTU21D;53897;51.126;5.868;2024-02-26T07:28:12;19.11;42.44
66962;HTU21D;53897;51.126;5.868;2024-02-26T07:30:38;19.11;42.43
66962;HTU21D;53897;51.126;5.868;2024-02-26T07:33:03;19.14;42.42
66962;HTU21D;53897;51.126;5.868;2024-02-26T07:35:29;19.15;42.43
66962;HTU21D;53897;51.126;5.868;2024-02-26T07:37:55;19.17;42.42
66962;HTU21D;53897;51.126;5.868;2024-02-26T07:40:20;19.20;42.39
66962;HTU21D;53897;51.126;5.868;2024-02-26T07:42:46;19.20;42.36
66962;HTU21D;53897;51.126;5.868;2024-02-26T07:45:12;19.21;42.35
66962;HTU21D;53897;51.126;5.868;2024-02-26T07:47:38;19.22;42.34
66962;HTU21D;53897;51.126;5.868;2024-02-26T07:50:07;19.23;42.32
66962;HTU21D;53897;51.126;5.868;2024-02-26T07:52:34;19.23;42.32
66962;HTU21D;53897;51.126;5.868;2024-02-26T07:55:00;19.24;42.32
66962;HTU21D;53897;51.126;5.868;2024-02-26T07:57:25;19.22;42.29
66962;HTU21D;53897;51.126;5.868;2024-02-26T07:59:51;19.24;42.29
66962;HTU21D;53897;51.126;5.868;2024-02-26T08:02:17;19.25;42.32
66962;HTU21D;53897;51.126;5.868;2024-02-26T08:04:42;19.24;42.29
66962;HTU21D;53897;51.126;5.868;2024-02-26T08:07:08;19.24;42.29
66962;HTU21D;53897;51.126;5.868;2024-02-26T08:09:34;19.23;42.28
66962;HTU21D;53897;51.126;5.868;2024-02-26T08:12:00;19.24;42.29
66962;HTU21D;53897;51.126;5.868;2024-02-26T08:14:25;19.23;42.31
66962;HTU21D;53897;51.126;5.868;2024-02-26T08:16:51;19.24;42.30
66962;HTU21D;53897;51.126;5.868;2024-02-26T08:19:17;19.24;42.27
66962;HTU21D;53897;51.126;5.868;2024-02-26T08:21:43;19.23;42.27
66962;HTU21D;53897;51.126;5.868;2024-02-26T08:24:09;19.22;42.26
66962;HTU21D;53897;51.126;5.868;2024-02-26T08:26:34;19.22;42.27
66962;HTU21D;53897;51.126;5.868;2024-02-26T08:29:00;19.22;42.26
66962;HTU21D;53897;51.126;5.868;2024-02-26T08:31:26;19.22;42.29
66962;HTU21D;53897;51.126;5.868;2024-02-26T08:33:53;19.21;42.27
66962;HTU21D;53897;51.126;5.868;2024-02-26T08:36:18;19.20;42.25
66962;HTU21D;53897;51.126;5.868;2024-02-26T08:38:44;19.20;42.23
66962;HTU21D;53897;51.126;5.868;2024-02-26T08:41:10;19.18;42.22
66962;HTU21D;53897;51.126;5.868;2024-02-26T08:43:36;19.16;42.23
66962;HTU21D;53897;51.126;5.868;2024-02-26T08:46:01;19.16;42.23
66962;HTU21D;53897;51.126;5.868;2024-02-26T08:48:28;19.17;42.22
66962;HTU21D;53897;51.126;5.868;2024-02-26T08:50:54;19.16;42.19
66962;HTU21D;53897;51.126;5.868;2024-02-26T08:53:20;19.15;42.19
66962;HTU21D;53897;51.126;5.868;2024-02-26T08:55:46;19.15;42.16
66962;HTU21D;53897;51.126;5.868;2024-02-26T08:58:11;19.15;42.14
66962;HTU21D;53897;51.126;5.868;2024-02-26T09:00:37;19.14;42.14
66962;HTU21D;53897;51.126;5.868;2024-02-26T09:03:03;19.14;42.14
66962;HTU21D;53897;51.126;5.868;2024-02-26T09:05:29;19.12;42.16
66962;HTU21D;53897;51.126;5.868;2024-02-26T09:07:54;19.11;42.15
66962;HTU21D;53897;51.126;5.868;2024-02-26T09:10:20;19.10;42.15
66962;HTU21D;53897;51.126;5.868;2024-02-26T09:12:46;19.09;42.16
66962;HTU21D;53897;51.126;5.868;2024-02-26T09:15:11;19.09;42.16
66962;HTU21D;53897;51.126;5.868;2024-02-26T09:17:38;19.07;42.16
66962;HTU21D;53897;51.126;5.868;2024-02-26T09:20:04;19.07;42.16
66962;HTU21D;53897;51.126;5.868;2024-02-26T09:22:31;19.06;42.16
66962;HTU21D;53897;51.126;5.868;2024-02-26T09:24:57;19.05;42.14
66962;HTU21D;53897;51.126;5.868;2024-02-26T09:27:22;19.05;42.16
66962;HTU21D;53897;51.126;5.868;2024-02-26T09:29:49;19.03;42.16
66962;HTU21D;53897;51.126;5.868;2024-02-26T09:32:14;19.02;42.16
66962;HTU21D;53897;51.126;5.868;2024-02-26T09:34:41;19.02;42.19
66962;HTU21D;53897;51.126;5.868;2024-02-26T09:37:07;19.00;42.17
66962;HTU21D;53897;51.126;5.868;2024-02-26T09:39:32;19.00;42.19
66962;HTU21D;53897;51.126;5.868;2024-02-26T09:42:02;18.98;42.19
66962;HTU21D;53897;51.126;5.868;2024-02-26T09:44:29;18.98;42.20
66962;HTU21D;53897;51.126;5.868;2024-02-26T09:46:56;18.97;42.20
66962;HTU21D;53897;51.126;5.868;2024-02-26T09:49:24;18.95;42.19
66962;HTU21D;53897;51.126;5.868;2024-02-26T09:51:54;18.94;42.21
66962;HTU21D;53897;51.126;5.868;2024-02-26T09:54:23;18.94;42.23
66962;HTU21D;53897;51.126;5.868;2024-02-26T09:56:55;18.93;42.19
66962;HTU21D;53897;51.126;5.868;2024-02-26T09:59:24;18.92;42.21
66962;HTU21D;53897;51.126;5.868;2024-02-26T10:01:50;18.91;42.23
66962;HTU21D;53897;51.126;5.868;2024-02-26T10:04:17;18.89;42.24
66962;HTU21D;53897;51.126;5.868;2024-02-26T10:06:44;18.89;42.27
66962;HTU21D;53897;51.126;5.868;2024-02-26T10:09:12;18.86;42.26
66962;HTU21D;53897;51.126;5.868;2024-02-26T10:11:40;18.86;42.26
66962;HTU21D;53897;51.126;5.868;2024-02-26T10:14:08;18.86;42.27
66962;HTU21D;53897;51.126;5.868;2024-02-26T10:16:35;18.84;42.29
66962;HTU21D;53897;51.126;5.868;2024-02-26T10:19:01;18.83;42.31
66962;HTU21D;53897;51.126;5.868;2024-02-26T10:21:27;18.82;42.30
66962;HTU21D;53897;51.126;5.868;2024-02-26T10:23:53;18.83;42.30
66962;HTU21D;53897;51.126;5.868;2024-02-26T10:26:20;18.81;42.32
66962;HTU21D;53897;51.126;5.868;2024-02-26T10:28:46;18.81;42.32
66962;HTU21D;53897;51.126;5.868;2024-02-26T10:31:14;18.80;42.33
66962;HTU21D;53897;51.126;5.868;2024-02-26T10:33:41;18.79;42.33
66962;HTU21D;53897;51.126;5.868;2024-02-26T10:36:08;18.78;42.33
66962;HTU21D;53897;51.126;5.868;2024-02-26T10:38:35;18.76;42.36
66962;HTU21D;53897;51.126;5.868;2024-02-26T10:41:02;18.76;42.36
66962;HTU21D;53897;51.126;5.868;2024-02-26T10:43:28;18.73;42.38
66962;HTU21D;53897;51.126;5.868;2024-02-26T10:45:58;18.73;42.38
66962;HTU21D;53897;51.126;5.868;2024-02-26T10:48:24;18.71;42.38
66962;HTU21D;53897;51.126;5.868;2024-02-26T10:50:50;18.71;42.40
66962;HTU21D;53897;51.126;5.868;2024-02-26T10:53:19;18.71;42.42
66962;HTU21D;53897;51.126;5.868;2024-02-26T10:55:55;18.70;42.38
66962;HTU21D;53897;51.126;5.868;2024-02-26T10:58:23;18.68;42.40
66962;HTU21D;53897;51.126;5.868;2024-02-26T11:00:53;18.68;42.42
66962;HTU21D;53897;51.126;5.868;2024-02-26T11:03:22;18.67;42.44
66962;HTU21D;53897;51.126;5.868;2024-02-26T11:05:49;18.66;42.44
66962;HTU21D;53897;51.126;5.868;2024-02-26T11:08:19;18.65;42.45
66962;HTU21D;53897;51.126;5.868;2024-02-26T11:10:48;18.64;42.48
66962;HTU21D;53897;51.126;5.868;2024-02-26T11:13:15;18.62;42.48
66962;HTU21D;53897;51.126;5.868;2024-02-26T11:15:46;18.61;42.50
66962;HTU21D;53897;51.126;5.868;2024-02-26T11:18:16;18.59;42.49
66962;HTU21D;53897;51.126;5.868;2024-02-26T11:20:45;18.59;42.52
66962;HTU21D;53897;51.126;5.868;2024-02-26T11:23:12;18.58;42.51
66962;HTU21D;53897;51.126;5.868;2024-02-26T11:25:38;18.57;42.51
66962;HTU21D;53897;51.126;5.868;2024-02-26T11:28:18;18.57;42.53
66962;HTU21D;53897;51.126;5.868;2024-02-26T11:30:47;18.57;42.55
66962;HTU21D;53897;51.126;5.868;2024-02-26T11:33:15;18.61;42.56
66962;HTU21D;53897;51.126;5.868;2024-02-26T11:35:42;18.63;42.55
66962;HTU21D;53897;51.126;5.868;2024-02-26T11:38:08;18.67;42.54
66962;HTU21D;53897;51.126;5.868;2024-02-26T11:40:43;18.70;42.52
66962;HTU21D;53897;51.126;5.868;2024-02-26T11:43:10;18.74;42.51
66962;HTU21D;53897;51.126;5.868;2024-02-26T11:48:04;18.83;42.45
66962;HTU21D;53897;51.126;5.868;2024-02-26T11:50:39;18.87;42.42
66962;HTU21D;53897;51.126;5.868;2024-02-26T11:55:47;18.95;42.36
66962;HTU21D;53897;51.126;5.868;2024-02-26T11:58:12;18.97;42.36
66962;HTU21D;53897;51.126;5.868;2024-02-26T12:00:42;19.00;42.34
66962;HTU21D;53897;51.126;5.868;2024-02-26T12:03:08;19.03;42.31
66962;HTU21D;53897;51.126;5.868;2024-02-26T12:05:36;19.05;42.29
66962;HTU21D;53897;51.126;5.868;2024-02-26T12:08:07;19.08;42.28
66962;HTU21D;53897;51.126;5.868;2024-02-26T12:10:37;19.10;42.27
66962;HTU21D;53897;51.126;5.868;2024-02-26T12:13:12;19.12;42.25
66962;HTU21D;53897;51.126;5.868;2024-02-26T12:15:41;19.14;42.22
66962;HTU21D;53897;51.126;5.868;2024-02-26T12:18:09;19.15;42.21
66962;HTU21D;53897;51.126;5.868;2024-02-26T12:20:38;19.14;42.23
66962;HTU21D;53897;51.126;5.868;2024-02-26T12:23:04;19.17;42.22
66962;HTU21D;53897;51.126;5.868;2024-02-26T12:25:31;19.18;42.19
66962;HTU21D;53897;51.126;5.868;2024-02-26T12:27:59;19.17;42.17
66962;HTU21D;53897;51.126;5.868;2024-02-26T12:30:25;19.20;42.18
66962;HTU21D;53897;51.126;5.868;2024-02-26T12:32:53;19.20;42.17
66962;HTU21D;53897;51.126;5.868;2024-02-26T12:35:24;19.20;42.17
66962;HTU21D;53897;51.126;5.868;2024-02-26T12:37:50;19.21;42.14
66962;HTU21D;53897;51.126;5.868;2024-02-26T12:40:17;19.21;42.14
66962;HTU21D;53897;51.126;5.868;2024-02-26T12:42:43;19.21;42.16
66962;HTU21D;53897;51.126;5.868;2024-02-26T12:45:11;19.22;42.16
66962;HTU21D;53897;51.126;5.868;2024-02-26T12:47:41;19.22;42.14
66962;HTU21D;53897;51.126;5.868;2024-02-26T12:50:09;19.21;42.13
66962;HTU21D;53897;51.126;5.868;2024-02-26T12:52:38;19.21;42.18
66962;HTU21D;53897;51.126;5.868;2024-02-26T12:55:06;19.23;42.13
66962;HTU21D;53897;51.126;5.868;2024-02-26T12:57:37;19.22;42.13
66962;HTU21D;53897;51.126;5.868;2024-02-26T13:00:06;19.22;42.11
66962;HTU21D;53897;51.126;5.868;2024-02-26T13:02:36;19.22;42.13
66962;HTU21D;53897;51.126;5.868;2024-02-26T13:05:07;19.22;42.14
66962;HTU21D;53897;51.126;5.868;2024-02-26T13:07:34;19.22;42.14
66962;HTU21D;53897;51.126;5.868;2024-02-26T13:10:00;19.21;42.15
66962;HTU21D;53897;51.126;5.868;2024-02-26T13:12:26;19.21;42.14
66962;HTU21D;53897;51.126;5.868;2024-02-26T13:15:05;19.20;42.14
66962;HTU21D;53897;51.126;5.868;2024-02-26T13:17:33;19.20;42.13
66962;HTU21D;53897;51.126;5.868;2024-02-26T13:19:59;19.18;42.15
66962;HTU21D;53897;51.126;5.868;2024-02-26T13:22:25;19.17;42.13
66962;HTU21D;53897;51.126;5.868;2024-02-26T13:24:57;19.17;42.13
66962;HTU21D;53897;51.126;5.868;2024-02-26T13:27:23;19.17;42.15
66962;HTU21D;53897;51.126;5.868;2024-02-26T13:30:02;19.16;42.13
66962;HTU21D;53897;51.126;5.868;2024-02-26T13:32:35;19.16;42.13
66962;HTU21D;53897;51.126;5.868;2024-02-26T13:37:31;19.15;42.14
66962;HTU21D;53897;51.126;5.868;2024-02-26T13:39:57;19.14;42.14
66962;HTU21D;53897;51.126;5.868;2024-02-26T13:42:23;19.13;42.16
66962;HTU21D;53897;51.126;5.868;2024-02-26T13:44:48;19.14;42.15
66962;HTU21D;53897;51.126;5.868;2024-02-26T13:47:14;19.12;42.15
66962;HTU21D;53897;51.126;5.868;2024-02-26T13:49:40;19.11;42.16
66962;HTU21D;53897;51.126;5.868;2024-02-26T13:52:05;19.11;42.16
66962;HTU21D;53897;51.126;5.868;2024-02-26T13:54:31;19.10;42.16
66962;HTU21D;53897;51.126;5.868;2024-02-26T13:56:58;19.10;42.17
66962;HTU21D;53897;51.126;5.868;2024-02-26T13:59:23;19.08;42.16
66962;HTU21D;53897;51.126;5.868;2024-02-26T14:01:49;19.08;42.16
66962;HTU21D;53897;51.126;5.868;2024-02-26T14:04:15;19.07;42.16
66962;HTU21D;53897;51.126;5.868;2024-02-26T14:06:42;19.06;42.16
66962;HTU21D;53897;51.126;5.868;2024-02-26T14:09:08;19.06;42.15
66962;HTU21D;53897;51.126;5.868;2024-02-26T14:11:34;19.05;42.16
66962;HTU21D;53897;51.126;5.868;2024-02-26T14:14:01;19.05;42.15
66962;HTU21D;53897;51.126;5.868;2024-02-26T14:16:26;19.03;42.16
66962;HTU21D;53897;51.126;5.868;2024-02-26T14:18:52;19.02;42.17
66962;HTU21D;53897;51.126;5.868;2024-02-26T14:21:18;19.00;42.16
66962;HTU21D;53897;51.126;5.868;2024-02-26T14:23:44;18.98;42.17
66962;HTU21D;53897;51.126;5.868;2024-02-26T14:26:10;18.98;42.15
66962;HTU21D;53897;51.126;5.868;2024-02-26T14:28:36;18.99;42.16
66962;HTU21D;53897;51.126;5.868;2024-02-26T14:33:31;18.97;42.18
66962;HTU21D;53897;51.126;5.868;2024-02-26T14:35:56;18.96;42.19
66962;HTU21D;53897;51.126;5.868;2024-02-26T14:38:22;18.95;42.19
66962;HTU21D;53897;51.126;5.868;2024-02-26T14:40:49;18.95;42.19
66962;HTU21D;53897;51.126;5.868;2024-02-26T14:43:15;18.93;42.20
66962;HTU21D;53897;51.126;5.868;2024-02-26T14:45:40;18.93;42.20
66962;HTU21D;53897;51.126;5.868;2024-02-26T14:48:07;18.91;42.22
66962;HTU21D;53897;51.126;5.868;2024-02-26T14:50:33;18.89;42.24
66962;HTU21D;53897;51.126;5.868;2024-02-26T14:52:59;18.89;42.25
66962;HTU21D;53897;51.126;5.868;2024-02-26T14:55:25;18.88;42.23
66962;HTU21D;53897;51.126;5.868;2024-02-26T14:57:51;18.87;42.23
66962;HTU21D;53897;51.126;5.868;2024-02-26T15:00:17;18.86;42.26
66962;HTU21D;53897;51.126;5.868;2024-02-26T15:02:43;18.84;42.26
66962;HTU21D;53897;51.126;5.868;2024-02-26T15:05:08;18.84;42.28
66962;HTU21D;53897;51.126;5.868;2024-02-26T15:07:36;18.83;42.28
66962;HTU21D;53897;51.126;5.868;2024-02-26T15:10:06;18.83;42.29
66962;HTU21D;53897;51.126;5.868;2024-02-26T15:12:32;18.83;42.30
66962;HTU21D;53897;51.126;5.868;2024-02-26T15:14:59;18.80;42.29
66962;HTU21D;53897;51.126;5.868;2024-02-26T15:17:27;18.79;42.30
66962;HTU21D;53897;51.126;5.868;2024-02-26T15:19:53;18.80;42.31
66962;HTU21D;53897;51.126;5.868;2024-02-26T15:22:21;18.78;42.33